sensor_id;sensor_type;location;lat;lon;timestamp;pressure;altitude;pressure_sealevel;temperature;humidity
46598;BME280;32318;48.858;8.252;2023-08-21T00:06:28;100720.91;;;24.88;68.94
46598;BME280;32318;48.858;8.252;2023-08-21T00:14:28;100718.75;;;24.73;68.75
46598;BME280;32318;48.858;8.252;2023-08-21T00:22:28;100720.19;;;24.47;70.23
46598;BME280;32318;48.858;8.252;2023-08-21T00:30:28;100712.91;;;24.36;69.96
46598;BME280;32318;48.858;8.252;2023-08-21T00:38:29;100713.50;;;24.26;70.20
46598;BME280;32318;48.858;8.252;2023-08-21T00:46:30;100705.47;;;24.19;71.16
46598;BME280;32318;48.858;8.252;2023-08-21T00:54:31;100700.94;;;24.25;70.92
46598;BME280;32318;48.858;8.252;2023-08-21T01:02:32;100701.59;;;24.15;70.67
46598;BME280;32318;48.858;8.252;2023-08-21T01:10:54;100711.59;;;23.98;73.38
46598;BME280;32318;48.858;8.252;2023-08-21T01:18:56;100721.47;;;23.87;72.01
46598;BME280;32318;48.858;8.252;2023-08-21T01:26:57;100730.97;;;23.84;72.46
46598;BME280;32318;48.858;8.252;2023-08-21T01:34:58;100737.94;;;23.80;72.45
46598;BME280;32318;48.858;8.252;2023-08-21T01:42:59;100731.69;;;23.79;71.43
46598;BME280;32318;48.858;8.252;2023-08-21T01:51:02;100733.94;;;23.71;72.35
46598;BME280;32318;48.858;8.252;2023-08-21T01:59:04;100721.75;;;23.61;73.22
46598;BME280;32318;48.858;8.252;2023-08-21T02:07:04;100738.00;;;23.56;72.75
46598;BME280;32318;48.858;8.252;2023-08-21T02:15:05;100734.94;;;23.41;72.79
46598;BME280;32318;48.858;8.252;2023-08-21T02:23:06;100728.28;;;23.37;73.39
46598;BME280;32318;48.858;8.252;2023-08-21T02:31:09;100737.28;;;23.37;74.06
46598;BME280;32318;48.858;8.252;2023-08-21T02:39:09;100745.69;;;23.36;73.94
46598;BME280;32318;48.858;8.252;2023-08-21T02:47:09;100751.03;;;23.30;74.39
46598;BME280;32318;48.858;8.252;2023-08-21T02:55:10;100752.91;;;23.18;73.58
46598;BME280;32318;48.858;8.252;2023-08-21T03:03:10;100755.69;;;22.99;74.59
46598;BME280;32318;48.858;8.252;2023-08-21T03:11:11;100750.25;;;22.99;74.93
46598;BME280;32318;48.858;8.252;2023-08-21T03:19:11;100750.59;;;23.03;74.67
46598;BME280;32318;48.858;8.252;2023-08-21T03:27:13;100744.00;;;22.99;74.79
46598;BME280;32318;48.858;8.252;2023-08-21T03:35:13;100744.09;;;23.04;75.04
46598;BME280;32318;48.858;8.252;2023-08-21T03:43:14;100739.97;;;23.01;74.82
46598;BME280;32318;48.858;8.252;2023-08-21T03:51:14;100751.56;;;22.97;75.14
46598;BME280;32318;48.858;8.252;2023-08-21T03:59:14;100750.59;;;22.91;75.02
46598;BME280;32318;48.858;8.252;2023-08-21T04:07:15;100756.38;;;22.83;75.54
46598;BME280;32318;48.858;8.252;2023-08-21T04:15:16;100760.31;;;22.87;75.34
46598;BME280;32318;48.858;8.252;2023-08-21T04:23:16;100754.16;;;22.80;74.95
46598;BME280;32318;48.858;8.252;2023-08-21T04:31:16;100751.28;;;22.75;75.53
46598;BME280;32318;48.858;8.252;2023-08-21T04:39:16;100755.19;;;22.79;75.59
46598;BME280;32318;48.858;8.252;2023-08-21T04:47:24;100764.19;;;22.79;76.51
46598;BME280;32318;48.858;8.252;2023-08-21T04:55:28;100775.41;;;22.71;75.20
46598;BME280;32318;48.858;8.252;2023-08-21T05:03:28;100769.72;;;22.72;75.34
46598;BME280;32318;48.858;8.252;2023-08-21T05:11:28;100787.88;;;22.79;75.58
46598;BME280;32318;48.858;8.252;2023-08-21T05:19:29;100782.31;;;22.85;75.12
46598;BME280;32318;48.858;8.252;2023-08-21T05:27:29;100800.22;;;22.93;74.64
46598;BME280;32318;48.858;8.252;2023-08-21T05:35:36;100801.63;;;22.96;74.71
46598;BME280;32318;48.858;8.252;2023-08-21T05:43:36;100808.03;;;23.01;74.70
46598;BME280;32318;48.858;8.252;2023-08-21T05:51:36;100803.16;;;23.22;74.33
46598;BME280;32318;48.858;8.252;2023-08-21T05:59:45;100808.38;;;23.47;75.01
46598;BME280;32318;48.858;8.252;2023-08-21T06:07:46;100810.03;;;23.84;73.78
46598;BME280;32318;48.858;8.252;2023-08-21T06:15:46;100829.22;;;24.13;73.20
46598;BME280;32318;48.858;8.252;2023-08-21T06:23:46;100829.13;;;24.37;72.67
46598;BME280;32318;48.858;8.252;2023-08-21T06:31:47;100841.50;;;24.39;72.92
46598;BME280;32318;48.858;8.252;2023-08-21T06:39:47;100831.91;;;24.66;71.74
46598;BME280;32318;48.858;8.252;2023-08-21T06:47:47;100847.59;;;24.58;72.53
46598;BME280;32318;48.858;8.252;2023-08-21T06:55:50;100842.00;;;24.65;71.99
46598;BME280;32318;48.858;8.252;2023-08-21T07:03:50;100852.97;;;24.82;73.24
46598;BME280;32318;48.858;8.252;2023-08-21T07:11:50;100845.25;;;24.91;72.20
46598;BME280;32318;48.858;8.252;2023-08-21T07:19:51;100849.22;;;25.00;72.32
46598;BME280;32318;48.858;8.252;2023-08-21T07:27:52;100849.97;;;25.13;72.15
46598;BME280;32318;48.858;8.252;2023-08-21T07:36:00;100844.88;;;25.33;71.89
46598;BME280;32318;48.858;8.252;2023-08-21T07:44:01;100841.34;;;25.50;71.46
46598;BME280;32318;48.858;8.252;2023-08-21T07:52:03;100847.69;;;25.73;71.29
46598;BME280;32318;48.858;8.252;2023-08-21T08:00:04;100855.22;;;25.82;70.49
46598;BME280;32318;48.858;8.252;2023-08-21T08:08:09;100853.84;;;26.02;69.96
46598;BME280;32318;48.858;8.252;2023-08-21T08:16:09;100846.13;;;26.16;69.50
46598;BME280;32318;48.858;8.252;2023-08-21T08:24:09;100856.50;;;26.36;69.27
46598;BME280;32318;48.858;8.252;2023-08-21T08:32:10;100859.47;;;26.57;68.10
46598;BME280;32318;48.858;8.252;2023-08-21T08:40:11;100857.22;;;26.76;67.84
46598;BME280;32318;48.858;8.252;2023-08-21T08:48:12;100850.78;;;26.87;67.58
46598;BME280;32318;48.858;8.252;2023-08-21T08:56:12;100853.56;;;27.20;66.56
46598;BME280;32318;48.858;8.252;2023-08-21T09:04:13;100854.00;;;27.39;64.54
46598;BME280;32318;48.858;8.252;2023-08-21T09:12:14;100841.84;;;27.62;64.18
46598;BME280;32318;48.858;8.252;2023-08-21T09:20:14;100839.25;;;27.83;62.04
46598;BME280;32318;48.858;8.252;2023-08-21T09:28:18;100842.88;;;27.94;61.23
46598;BME280;32318;48.858;8.252;2023-08-21T09:36:22;100839.94;;;28.11;61.70
46598;BME280;32318;48.858;8.252;2023-08-21T09:44:22;100840.34;;;28.35;60.63
46598;BME280;32318;48.858;8.252;2023-08-21T09:52:23;100822.25;;;28.49;59.70
46598;BME280;32318;48.858;8.252;2023-08-21T10:00:35;100811.84;;;28.67;58.74
46598;BME280;32318;48.858;8.252;2023-08-21T10:08:40;100814.38;;;28.89;58.38
46598;BME280;32318;48.858;8.252;2023-08-21T10:16:41;100806.13;;;29.05;58.78
46598;BME280;32318;48.858;8.252;2023-08-21T10:24:41;100793.50;;;29.24;58.37
46598;BME280;32318;48.858;8.252;2023-08-21T10:32:50;100778.91;;;29.50;57.66
46598;BME280;32318;48.858;8.252;2023-08-21T10:41:07;100782.69;;;29.74;55.78
46598;BME280;32318;48.858;8.252;2023-08-21T10:49:07;100778.00;;;29.75;54.84
46598;BME280;32318;48.858;8.252;2023-08-21T10:57:07;100776.84;;;29.92;54.88
46598;BME280;32318;48.858;8.252;2023-08-21T11:05:09;100771.00;;;30.14;54.64
46598;BME280;32318;48.858;8.252;2023-08-21T11:13:10;100770.88;;;30.34;53.07
46598;BME280;32318;48.858;8.252;2023-08-21T11:21:11;100766.66;;;30.52;51.92
46598;BME280;32318;48.858;8.252;2023-08-21T11:29:12;100760.88;;;30.54;51.62
46598;BME280;32318;48.858;8.252;2023-08-21T11:37:12;100754.47;;;30.64;50.88
46598;BME280;32318;48.858;8.252;2023-08-21T11:45:13;100757.31;;;30.88;50.28
46598;BME280;32318;48.858;8.252;2023-08-21T11:53:13;100747.63;;;30.91;49.57
46598;BME280;32318;48.858;8.252;2023-08-21T12:01:19;100752.47;;;31.04;49.12
46598;BME280;32318;48.858;8.252;2023-08-21T12:09:20;100748.59;;;31.10;49.34
46598;BME280;32318;48.858;8.252;2023-08-21T12:17:20;100740.41;;;31.29;48.19
46598;BME280;32318;48.858;8.252;2023-08-21T12:25:20;100739.59;;;31.29;47.94
46598;BME280;32318;48.858;8.252;2023-08-21T12:33:21;100732.03;;;31.64;48.93
46598;BME280;32318;48.858;8.252;2023-08-21T12:41:21;100718.72;;;31.66;48.60
46598;BME280;32318;48.858;8.252;2023-08-21T12:49:21;100706.25;;;31.74;48.48
46598;BME280;32318;48.858;8.252;2023-08-21T12:57:22;100702.47;;;31.89;47.82
46598;BME280;32318;48.858;8.252;2023-08-21T13:05:22;100697.19;;;32.12;46.79
46598;BME280;32318;48.858;8.252;2023-08-21T13:13:22;100696.28;;;32.16;46.34
46598;BME280;32318;48.858;8.252;2023-08-21T13:21:23;100686.13;;;32.50;46.46
46598;BME280;32318;48.858;8.252;2023-08-21T13:29:23;100683.69;;;32.62;45.58
46598;BME280;32318;48.858;8.252;2023-08-21T13:37:23;100692.81;;;32.63;44.34
46598;BME280;32318;48.858;8.252;2023-08-21T13:45:23;100683.00;;;32.70;43.30
46598;BME280;32318;48.858;8.252;2023-08-21T13:53:24;100673.44;;;32.82;41.90
46598;BME280;32318;48.858;8.252;2023-08-21T14:01:24;100672.09;;;32.79;42.41
46598;BME280;32318;48.858;8.252;2023-08-21T14:09:25;100661.78;;;32.85;42.52
46598;BME280;32318;48.858;8.252;2023-08-21T14:17:25;100652.38;;;32.86;42.73
46598;BME280;32318;48.858;8.252;2023-08-21T14:25:26;100650.50;;;32.95;41.01
46598;BME280;32318;48.858;8.252;2023-08-21T14:33:26;100647.13;;;32.98;39.93
46598;BME280;32318;48.858;8.252;2023-08-21T14:41:28;100635.66;;;33.05;40.16
46598;BME280;32318;48.858;8.252;2023-08-21T14:58:12;100625.81;;;33.13;39.67
46598;BME280;32318;48.858;8.252;2023-08-21T15:06:12;100622.84;;;33.23;40.12
46598;BME280;32318;48.858;8.252;2023-08-21T15:14:13;100618.34;;;33.13;40.36
46598;BME280;32318;48.858;8.252;2023-08-21T15:22:14;100609.25;;;32.99;40.60
46598;BME280;32318;48.858;8.252;2023-08-21T15:30:14;100594.19;;;32.91;41.01
46598;BME280;32318;48.858;8.252;2023-08-21T15:38:16;100586.16;;;32.76;41.90
46598;BME280;32318;48.858;8.252;2023-08-21T15:46:16;100585.19;;;32.52;41.92
46598;BME280;32318;48.858;8.252;2023-08-21T15:54:18;100583.44;;;32.43;42.20
46598;BME280;32318;48.858;8.252;2023-08-21T16:02:19;100567.84;;;32.33;42.61
46598;BME280;32318;48.858;8.252;2023-08-21T16:10:19;100567.19;;;32.22;43.33
46598;BME280;32318;48.858;8.252;2023-08-21T16:18:19;100550.09;;;32.20;43.75
46598;BME280;32318;48.858;8.252;2023-08-21T16:26:20;100551.84;;;32.16;43.62
46598;BME280;32318;48.858;8.252;2023-08-21T16:34:20;100550.34;;;32.04;43.99
46598;BME280;32318;48.858;8.252;2023-08-21T16:42:20;100547.69;;;31.99;44.40
46598;BME280;32318;48.858;8.252;2023-08-21T16:50:20;100542.16;;;31.99;44.66
46598;BME280;32318;48.858;8.252;2023-08-21T16:58:21;100537.31;;;31.91;44.72
46598;BME280;32318;48.858;8.252;2023-08-21T17:06:21;100549.56;;;31.85;45.44
46598;BME280;32318;48.858;8.252;2023-08-21T17:14:21;100545.25;;;31.79;45.39
46598;BME280;32318;48.858;8.252;2023-08-21T17:22:22;100541.00;;;31.67;46.08
46598;BME280;32318;48.858;8.252;2023-08-21T17:30:23;100539.19;;;31.57;46.62
46598;BME280;32318;48.858;8.252;2023-08-21T17:38:23;100540.66;;;31.50;47.01
46598;BME280;32318;48.858;8.252;2023-08-21T17:46:24;100539.19;;;31.38;47.63
46598;BME280;32318;48.858;8.252;2023-08-21T17:54:27;100538.88;;;31.21;48.65
46598;BME280;32318;48.858;8.252;2023-08-21T18:02:27;100544.16;;;30.93;50.00
46598;BME280;32318;48.858;8.252;2023-08-21T18:10:28;100561.16;;;30.76;50.87
46598;BME280;32318;48.858;8.252;2023-08-21T18:18:28;100556.44;;;30.52;51.25
46598;BME280;32318;48.858;8.252;2023-08-21T18:26:30;100558.84;;;30.29;52.30
46598;BME280;32318;48.858;8.252;2023-08-21T18:34:30;100567.84;;;30.05;53.51
46598;BME280;32318;48.858;8.252;2023-08-21T18:42:30;100574.34;;;29.80;54.93
46598;BME280;32318;48.858;8.252;2023-08-21T18:50:39;100573.59;;;29.69;59.09
46598;BME280;32318;48.858;8.252;2023-08-21T18:58:41;100588.00;;;29.51;57.45
46598;BME280;32318;48.858;8.252;2023-08-21T19:06:42;100588.34;;;29.23;57.59
46598;BME280;32318;48.858;8.252;2023-08-21T19:14:42;100596.38;;;29.09;57.74
46598;BME280;32318;48.858;8.252;2023-08-21T19:22:42;100602.78;;;28.79;58.10
46598;BME280;32318;48.858;8.252;2023-08-21T19:30:42;100606.91;;;28.61;58.33
46598;BME280;32318;48.858;8.252;2023-08-21T19:38:49;100614.59;;;28.54;59.84
46598;BME280;32318;48.858;8.252;2023-08-21T19:46:55;100606.94;;;28.45;59.15
46598;BME280;32318;48.858;8.252;2023-08-21T19:54:56;100608.28;;;28.38;59.34
46598;BME280;32318;48.858;8.252;2023-08-21T20:02:56;100606.09;;;28.24;59.78
46598;BME280;32318;48.858;8.252;2023-08-21T20:11:02;100618.16;;;28.13;60.41
46598;BME280;32318;48.858;8.252;2023-08-21T20:19:03;100608.78;;;27.98;59.88
46598;BME280;32318;48.858;8.252;2023-08-21T20:27:03;100620.25;;;27.75;60.29
46598;BME280;32318;48.858;8.252;2023-08-21T20:35:04;100627.06;;;27.62;60.45
46598;BME280;32318;48.858;8.252;2023-08-21T20:43:06;100626.47;;;27.44;60.77
46598;BME280;32318;48.858;8.252;2023-08-21T20:51:06;100631.63;;;27.40;60.94
46598;BME280;32318;48.858;8.252;2023-08-21T20:59:06;100635.72;;;27.33;60.93
46598;BME280;32318;48.858;8.252;2023-08-21T21:07:42;100635.94;;;27.21;61.84
46598;BME280;32318;48.858;8.252;2023-08-21T21:15:42;100635.81;;;27.00;61.05
46598;BME280;32318;48.858;8.252;2023-08-21T21:23:42;100634.44;;;26.98;61.36
46598;BME280;32318;48.858;8.252;2023-08-21T21:31:43;100636.88;;;26.94;61.60
46598;BME280;32318;48.858;8.252;2023-08-21T21:39:43;100630.25;;;26.85;61.32
46598;BME280;32318;48.858;8.252;2023-08-21T21:47:43;100622.72;;;26.75;62.17
46598;BME280;32318;48.858;8.252;2023-08-21T21:55:43;100628.97;;;26.65;61.91
46598;BME280;32318;48.858;8.252;2023-08-21T22:03:44;100630.59;;;26.61;62.14
46598;BME280;32318;48.858;8.252;2023-08-21T22:11:44;100622.31;;;26.56;62.13
46598;BME280;32318;48.858;8.252;2023-08-21T22:19:44;100625.84;;;26.51;62.49
46598;BME280;32318;48.858;8.252;2023-08-21T22:27:45;100620.06;;;26.48;62.69
46598;BME280;32318;48.858;8.252;2023-08-21T22:35:51;100617.81;;;26.39;62.66
46598;BME280;32318;48.858;8.252;2023-08-21T22:43:51;100609.50;;;26.29;63.11
46598;BME280;32318;48.858;8.252;2023-08-21T22:51:52;100603.34;;;26.11;63.37
46598;BME280;32318;48.858;8.252;2023-08-21T22:59:52;100602.25;;;26.12;62.67
46598;BME280;32318;48.858;8.252;2023-08-21T23:07:52;100604.03;;;26.02;63.46
46598;BME280;32318;48.858;8.252;2023-08-21T23:15:54;100602.03;;;25.92;63.41
46598;BME280;32318;48.858;8.252;2023-08-21T23:23:55;100609.66;;;25.90;63.10
46598;BME280;32318;48.858;8.252;2023-08-21T23:31:55;100599.13;;;25.76;63.94
46598;BME280;32318;48.858;8.252;2023-08-21T23:39:56;100595.19;;;25.67;63.77
46598;BME280;32318;48.858;8.252;2023-08-21T23:47:56;100591.91;;;25.65;63.94
46598;BME280;32318;48.858;8.252;2023-08-21T23:55:56;100583.59;;;25.55;64.35
